Time;durP1;ratioP1;P1;durP2;ratioP2;P2;SDS_P1;SDS_P2;PMS_P1;PMS_P2;Temp;Humidity;BMP_temperature;BMP_pressure;BME280_temperature;BME280_humidity;BME280_pressure;Samples;Min_cycle;Max_cycle;Signal;HPM_P1;HPM_P2
2022/07/08 00:02:22;;;;;;;2.58;1.80;;;20.20;58.60;;;;;;5066222;28;20049;-74
2022/07/08 00:04:49;;;;;;;3.30;1.60;;;20.20;58.50;;;;;;5069784;28;20553;-74
2022/07/08 00:07:17;;;;;;;3.70;1.80;;;20.20;58.50;;;;;;5069984;28;20135;-74
2022/07/08 00:09:43;;;;;;;3.25;1.77;;;20.10;58.50;;;;;;5069641;28;20135;-74
2022/07/08 00:12:10;;;;;;;3.80;1.70;;;20.10;61.10;;;;;;5068988;28;20044;-74
2022/07/08 00:14:37;;;;;;;2.75;1.80;;;20.10;58.50;;;;;;5068989;28;20095;-74
2022/07/08 00:17:04;;;;;;;3.58;1.98;;;20.10;61.20;;;;;;5069475;28;20398;-74
2022/07/08 00:19:31;;;;;;;2.63;1.75;;;20.00;61.30;;;;;;5069425;28;20052;-74
2022/07/08 00:21:58;;;;;;;2.85;1.60;;;20.00;61.00;;;;;;5068478;28;20048;-74
2022/07/08 00:24:26;;;;;;;3.50;1.52;;;20.10;58.50;;;;;;5069083;28;20186;-74
2022/07/08 00:26:53;;;;;;;3.35;1.63;;;20.10;58.50;;;;;;5069107;28;20052;-74
2022/07/08 00:29:20;;;;;;;3.78;1.80;;;20.10;59.60;;;;;;5069237;28;20131;-74
2022/07/08 00:31:47;;;;;;;2.47;1.63;;;19.50;61.30;;;;;;5059035;28;20037;-74
2022/07/08 00:34:13;;;;;;;2.25;1.40;;;20.10;58.50;;;;;;5049047;28;20052;-74
2022/07/08 00:36:40;;;;;;;1.90;1.45;;;20.10;58.50;;;;;;5048882;28;20127;-74
2022/07/08 00:39:07;;;;;;;3.45;1.73;;;20.20;61.40;;;;;;5049290;28;20567;-74
2022/07/08 00:41:35;;;;;;;3.47;1.70;;;20.00;58.50;;;;;;5058448;28;20119;-74
2022/07/08 00:44:01;;;;;;;4.47;1.60;;;20.10;58.50;;;;;;5068754;28;20394;-74
2022/07/08 00:46:28;;;;;;;2.78;1.48;;;20.10;58.60;;;;;;5069159;28;20129;-74
2022/07/08 00:48:55;;;;;;;2.92;1.50;;;20.10;61.00;;;;;;5068980;28;20512;-74
2022/07/08 00:51:21;;;;;;;4.15;1.70;;;20.10;58.60;;;;;;5061089;28;20084;-74
2022/07/08 00:53:51;;;;;;;3.00;1.58;;;19.60;61.00;;;;;;5048454;28;20131;-74
2022/07/08 00:56:18;;;;;;;3.95;1.75;;;20.00;58.50;;;;;;5048878;28;20053;-74
2022/07/08 00:58:46;;;;;;;3.67;1.60;;;20.00;58.50;;;;;;5048866;28;20059;-74
2022/07/08 01:01:13;;;;;;;3.33;1.60;;;20.00;61.10;;;;;;5054348;28;20052;-74
2022/07/08 01:03:40;;;;;;;2.72;1.35;;;20.00;58.60;;;;;;5068224;28;20120;-74
2022/07/08 01:06:07;;;;;;;2.03;1.52;;;20.00;58.60;;;;;;5068522;28;20230;-74
2022/07/08 01:08:34;;;;;;;2.53;1.50;;;20.00;58.60;;;;;;5068594;28;20060;-74
2022/07/08 01:11:01;;;;;;;3.92;2.03;;;20.00;58.60;;;;;;5067663;28;20044;-74
2022/07/08 01:13:27;;;;;;;4.18;1.63;;;20.10;60.60;;;;;;5069444;28;20059;-74
2022/07/08 01:15:55;;;;;;;2.40;1.50;;;20.00;58.60;;;;;;5068514;28;20474;-74
2022/07/08 01:18:23;;;;;;;3.60;1.70;;;20.00;58.60;;;;;;5068602;28;20135;-74
2022/07/08 01:20:51;;;;;;;2.65;1.55;;;20.00;58.60;;;;;;5067707;28;20713;-74
2022/07/08 01:23:17;;;;;;;3.45;1.48;;;20.30;62.20;;;;;;5063415;28;20067;-73
2022/07/08 01:25:44;;;;;;;2.75;1.52;;;20.70;62.20;;;;;;5056688;28;20132;-73
2022/07/08 01:28:11;;;;;;;2.90;1.52;;;20.00;58.60;;;;;;5057975;28;20048;-74
2022/07/08 01:30:37;;;;;;;2.47;1.38;;;20.00;58.60;;;;;;5057494;28;20045;-73
2022/07/08 01:33:04;;;;;;;2.63;1.40;;;21.00;61.80;;;;;;5058561;28;20052;-74
2022/07/08 01:35:31;;;;;;;2.78;1.48;;;20.00;58.60;;;;;;5058714;28;20128;-73
2022/07/08 01:37:59;;;;;;;2.63;1.70;;;19.90;61.70;;;;;;5056955;28;20481;-73
2022/07/08 01:40:26;;;;;;;2.85;1.40;;;19.90;61.70;;;;;;5058347;28;20124;-73
2022/07/08 01:42:53;;;;;;;2.92;1.40;;;19.90;61.60;;;;;;5055873;28;20045;-73
2022/07/08 01:45:19;;;;;;;2.42;1.40;;;20.00;58.60;;;;;;5058367;28;20569;-73
2022/07/08 01:47:46;;;;;;;2.33;1.40;;;19.90;58.50;;;;;;5056123;28;20059;-75
2022/07/08 01:50:13;;;;;;;3.70;1.40;;;19.90;58.50;;;;;;5054708;28;20056;-75
2022/07/08 01:52:40;;;;;;;1.92;1.23;;;20.00;58.60;;;;;;5064576;28;20051;-75
2022/07/08 01:55:08;;;;;;;3.20;1.65;;;19.20;61.00;;;;;;5067347;28;20135;-75
2022/07/08 01:57:35;;;;;;;2.50;1.48;;;19.80;61.70;;;;;;5069064;28;20113;-75
2022/07/08 02:00:02;;;;;;;2.33;1.55;;;19.90;58.50;;;;;;5051167;28;20049;-75
2022/07/08 02:02:29;;;;;;;2.17;1.20;;;19.70;61.80;;;;;;5066447;28;20123;-75
2022/07/08 02:04:55;;;;;;;2.15;1.40;;;19.90;58.50;;;;;;5067590;28;20110;-75
2022/07/08 02:07:22;;;;;;;2.50;1.60;;;19.90;58.50;;;;;;5067474;28;20652;-75
2022/07/08 02:09:49;;;;;;;3.05;1.40;;;19.90;58.50;;;;;;5067236;28;20055;-75
2022/07/08 02:12:19;;;;;;;3.20;1.50;;;19.90;58.50;;;;;;5066908;28;20133;-75
2022/07/08 02:14:45;;;;;;;2.42;1.40;;;19.90;62.10;;;;;;5067533;28;20063;-75
2022/07/08 02:17:12;;;;;;;2.20;1.38;;;19.20;60.70;;;;;;5067340;28;20135;-75
2022/07/08 02:19:42;;;;;;;2.80;1.50;;;19.80;58.40;;;;;;5067221;28;20147;-75
2022/07/08 02:22:09;;;;;;;3.08;1.48;;;19.90;58.50;;;;;;5066637;28;20505;-75
2022/07/08 02:24:36;;;;;;;3.80;1.50;;;19.80;58.40;;;;;;5067409;28;20056;-75
2022/07/08 02:27:03;;;;;;;2.63;1.60;;;19.80;58.40;;;;;;5067495;28;20083;-75
2022/07/08 02:29:31;;;;;;;2.70;1.30;;;20.30;61.20;;;;;;5067134;28;20053;-75
2022/07/08 02:31:58;;;;;;;2.00;1.17;;;19.80;61.10;;;;;;5057997;28;20566;-75
2022/07/08 02:34:25;;;;;;;2.25;1.35;;;19.80;58.40;;;;;;5046994;28;20075;-75
2022/07/08 02:36:51;;;;;;;2.20;1.35;;;19.80;58.40;;;;;;5047548;28;20057;-75
2022/07/08 02:39:18;;;;;;;1.98;1.23;;;18.90;59.60;;;;;;5047037;28;20055;-75
2022/07/08 02:41:45;;;;;;;2.85;1.35;;;20.00;62.10;;;;;;5055303;28;20048;-75
2022/07/08 02:44:12;;;;;;;2.83;1.40;;;19.80;58.40;;;;;;5067122;28;20136;-75
2022/07/08 02:46:41;;;;;;;2.13;1.40;;;19.80;58.30;;;;;;5067103;28;20088;-75
2022/07/08 02:49:09;;;;;;;1.98;1.15;;;19.80;60.00;;;;;;5067358;28;20575;-75
2022/07/08 02:51:36;;;;;;;2.30;1.08;;;19.70;58.30;;;;;;5061422;28;20525;-75
2022/07/08 02:54:02;;;;;;;2.58;1.30;;;18.60;60.30;;;;;;5046744;28;20132;-75
2022/07/08 02:56:29;;;;;;;2.70;1.45;;;19.70;58.30;;;;;;5046983;28;20057;-75
2022/07/08 02:58:56;;;;;;;1.90;1.20;;;19.80;61.80;;;;;;5047682;28;20052;-75
2022/07/08 03:01:23;;;;;;;2.60;1.30;;;19.80;61.80;;;;;;5057036;28;20529;-75
2022/07/08 03:03:51;;;;;;;1.92;1.30;;;19.80;58.40;;;;;;5071835;28;20102;-75
2022/07/08 03:06:18;;;;;;;2.17;1.38;;;19.70;58.30;;;;;;5070708;28;20083;-75
2022/07/08 03:08:45;;;;;;;2.55;1.25;;;19.70;58.30;;;;;;5071061;28;20531;-75
2022/07/08 03:11:12;;;;;;;2.30;1.20;;;19.80;61.60;;;;;;5070269;28;20127;-75
2022/07/08 03:13:39;;;;;;;2.83;1.20;;;19.70;61.40;;;;;;5070636;28;20050;-75
2022/07/08 03:16:06;;;;;;;2.90;1.30;;;19.80;62.20;;;;;;5071370;28;20087;-75
2022/07/08 03:18:33;;;;;;;1.95;1.30;;;19.80;61.30;;;;;;5071044;28;20131;-75
2022/07/08 03:21:03;;;;;;;2.13;1.10;;;19.70;58.30;;;;;;5070136;28;20533;-75
2022/07/08 03:23:30;;;;;;;2.70;1.33;;;19.70;58.30;;;;;;5069646;28;20083;-75
2022/07/08 03:25:56;;;;;;;2.90;1.23;;;19.50;61.30;;;;;;5070979;28;20132;-76
2022/07/08 03:28:23;;;;;;;2.58;1.45;;;19.60;61.40;;;;;;5070935;28;20044;-75
2022/07/08 03:30:50;;;;;;;1.92;1.15;;;19.70;58.30;;;;;;5053883;28;20052;-76
2022/07/08 03:33:17;;;;;;;2.17;1.30;;;19.60;61.60;;;;;;5069808;28;20489;-74
2022/07/08 03:35:43;;;;;;;1.52;1.20;;;19.70;61.70;;;;;;5070691;28;20049;-75
2022/07/08 03:38:12;;;;;;;2.13;1.50;;;19.70;58.20;;;;;;5070749;28;20152;-75
2022/07/08 03:43:23;;;;;;;2.47;1.40;;;19.70;62.20;;;;;;5050451;28;20056;-75
2022/07/08 03:45:50;;;;;;;1.70;1.10;;;19.40;61.00;;;;;;5050414;28;20539;-75
2022/07/08 03:48:16;;;;;;;1.80;1.10;;;19.50;58.20;;;;;;5050558;28;20470;-76
2022/07/08 03:50:43;;;;;;;1.30;1.00;;;19.60;58.20;;;;;;5051466;28;20049;-75
2022/07/08 03:53:11;;;;;;;2.08;1.13;;;19.60;58.20;;;;;;5067808;28;20488;-75
2022/07/08 03:55:38;;;;;;;2.35;1.20;;;19.60;61.20;;;;;;5070302;28;20131;-76
2022/07/08 03:58:05;;;;;;;3.60;1.40;;;19.60;58.20;;;;;;5069695;28;20068;-77
2022/07/08 04:00:31;;;;;;;1.13;0.98;;;19.60;58.20;;;;;;5069688;28;20123;-75
2022/07/08 04:02:58;;;;;;;1.50;1.20;;;19.10;61.30;;;;;;5052156;28;20055;-75
2022/07/08 04:05:25;;;;;;;2.65;1.35;;;19.40;61.10;;;;;;5070185;28;20055;-75
2022/07/08 04:07:52;;;;;;;2.38;1.40;;;19.60;61.40;;;;;;5069648;28;20552;-75
2022/07/08 04:10:20;;;;;;;2.70;1.33;;;19.60;62.00;;;;;;5069169;28;20058;-75
2022/07/08 04:12:47;;;;;;;1.70;1.25;;;19.60;58.20;;;;;;5055067;28;20087;-74
2022/07/08 04:15:13;;;;;;;1.67;1.30;;;19.60;58.20;;;;;;5066181;28;20133;-75
2022/07/08 04:17:40;;;;;;;1.38;1.10;;;19.60;58.20;;;;;;5070066;28;20162;-75
2022/07/08 04:20:09;;;;;;;2.28;1.10;;;18.30;60.40;;;;;;5069822;28;20134;-75
2022/07/08 04:22:35;;;;;;;1.67;1.20;;;19.60;58.20;;;;;;5068935;28;20534;-75
2022/07/08 04:25:02;;;;;;;2.80;1.40;;;19.60;58.20;;;;;;5068980;28;20051;-75
2022/07/08 04:27:30;;;;;;;1.58;1.10;;;19.80;61.40;;;;;;5069729;28;20059;-75
2022/07/08 04:29:57;;;;;;;1.60;1.20;;;19.70;61.30;;;;;;5067715;28;20076;-75
2022/07/08 04:32:24;;;;;;;1.67;1.10;;;19.70;61.70;;;;;;5049991;28;20145;-76
2022/07/08 04:34:51;;;;;;;2.83;1.23;;;19.60;58.10;;;;;;5049331;28;20128;-75
2022/07/08 04:37:18;;;;;;;1.75;1.10;;;19.90;58.20;;;;;;5049489;28;20128;-75
2022/07/08 04:39:45;;;;;;;1.63;1.15;;;19.60;58.10;;;;;;5049524;28;20128;-74
2022/07/08 04:42:12;;;;;;;1.83;1.10;;;19.70;60.90;;;;;;5069147;28;20102;-76
2022/07/08 04:44:41;;;;;;;1.80;0.98;;;19.60;58.10;;;;;;5068850;28;20056;-75
2022/07/08 04:47:07;;;;;;;1.45;1.00;;;19.80;61.10;;;;;;5069091;28;20592;-75
2022/07/08 04:49:34;;;;;;;2.97;1.02;;;19.40;60.80;;;;;;5069349;28;20053;-76
2022/07/08 04:52:01;;;;;;;2.22;1.10;;;20.80;61.90;;;;;;5050426;28;20084;-75
2022/07/08 04:54:27;;;;;;;2.45;1.00;;;19.90;61.00;;;;;;5053041;28;20131;-74
2022/07/08 04:56:54;;;;;;;1.50;1.10;;;18.50;61.00;;;;;;5068604;28;20075;-76
2022/07/08 04:59:21;;;;;;;2.75;1.02;;;19.50;60.00;;;;;;5068757;28;20063;-75
2022/07/08 05:01:50;;;;;;;1.25;0.90;;;19.60;58.00;;;;;;5067647;28;20102;-75
2022/07/08 05:04:17;;;;;;;1.67;0.95;;;19.60;58.00;;;;;;5052033;28;20131;-76
2022/07/08 05:06:45;;;;;;;2.25;1.20;;;18.60;60.40;;;;;;5068764;28;20056;-74
2022/07/08 05:09:12;;;;;;;1.88;1.10;;;19.70;59.90;;;;;;5068474;28;20531;-75
2022/07/08 05:11:39;;;;;;;3.63;1.00;;;19.60;61.40;;;;;;5067736;28;20508;-75
2022/07/08 05:14:06;;;;;;;1.88;0.98;;;19.60;58.00;;;;;;5068411;28;20083;-75
2022/07/08 05:16:33;;;;;;;1.42;1.00;;;19.60;58.00;;;;;;5068346;28;20125;-76
2022/07/08 05:19:01;;;;;;;2.42;1.15;;;19.60;58.00;;;;;;5068767;28;20087;-74
2022/07/08 05:21:31;;;;;;;1.55;1.25;;;18.90;60.70;;;;;;5037729;28;20529;-72
2022/07/08 05:23:58;;;;;;;1.98;1.17;;;19.60;58.00;;;;;;5056662;28;21501;-73
2022/07/08 05:26:24;;;;;;;1.90;1.15;;;18.70;60.60;;;;;;5056205;28;20043;-73
2022/07/08 05:28:51;;;;;;;1.83;1.05;;;19.60;58.00;;;;;;5059086;28;20131;-74
2022/07/08 05:31:18;;;;;;;4.05;1.80;;;19.60;58.00;;;;;;5056145;28;20053;-73
2022/07/08 05:33:44;;;;;;;2.08;1.00;;;19.60;58.00;;;;;;5048213;28;20060;-73
2022/07/08 05:36:13;;;;;;;1.38;0.98;;;19.60;61.40;;;;;;5048152;28;20140;-73
2022/07/08 05:38:39;;;;;;;1.80;0.90;;;19.70;61.20;;;;;;5048342;28;20071;-73
2022/07/08 05:41:06;;;;;;;1.90;1.00;;;19.60;61.00;;;;;;5059249;28;20053;-73
2022/07/08 05:43:33;;;;;;;3.25;1.20;;;19.70;60.80;;;;;;5067619;28;20044;-73
2022/07/08 05:45:59;;;;;;;1.35;0.90;;;18.60;61.50;;;;;;5068277;28;20052;-73
2022/07/08 05:48:28;;;;;;;2.55;1.20;;;19.90;62.00;;;;;;5068058;28;20062;-73
2022/07/08 05:50:55;;;;;;;2.03;1.05;;;19.70;61.30;;;;;;5061875;28;20147;-73
2022/07/08 05:53:23;;;;;;;1.85;1.10;;;19.40;61.30;;;;;;5047751;28;20059;-73
2022/07/08 05:55:49;;;;;;;1.73;1.00;;;20.20;61.60;;;;;;5048051;28;20485;-73
2022/07/08 05:58:16;;;;;;;2.22;1.13;;;19.90;57.90;;;;;;5047760;28;20059;-73
2022/07/08 06:00:43;;;;;;;2.90;1.35;;;20.00;57.90;;;;;;5048052;28;20084;-73
2022/07/08 06:03:10;;;;;;;2.00;0.98;;;20.40;61.00;;;;;;5047572;28;20055;-73
2022/07/08 06:05:36;;;;;;;2.17;1.15;;;20.30;57.70;;;;;;5047717;28;20135;-73
2022/07/08 06:08:03;;;;;;;1.08;0.90;;;20.30;60.30;;;;;;5047842;28;20084;-73
2022/07/08 06:10:31;;;;;;;1.45;1.10;;;20.70;60.40;;;;;;5051707;28;20060;-73
2022/07/08 06:12:58;;;;;;;2.38;1.10;;;20.50;60.10;;;;;;5067740;28;20136;-73
2022/07/08 06:15:24;;;;;;;1.48;1.00;;;20.70;57.00;;;;;;5067924;28;20080;-73
2022/07/08 06:17:51;;;;;;;2.30;1.10;;;20.60;56.80;;;;;;5067567;28;20055;-73
2022/07/08 06:20:18;;;;;;;0.80;0.70;;;20.70;56.80;;;;;;5067306;28;20063;-73
2022/07/08 06:22:44;;;;;;;1.20;0.90;;;20.70;56.70;;;;;;5067545;28;20607;-73
2022/07/08 06:25:11;;;;;;;1.48;0.90;;;20.70;56.70;;;;;;5067544;28;20054;-73
2022/07/08 06:27:39;;;;;;;1.67;1.00;;;20.70;56.60;;;;;;5067784;28;20144;-73
2022/07/08 06:30:07;;;;;;;1.88;1.00;;;20.70;56.70;;;;;;5067209;28;20062;-74
2022/07/08 06:32:34;;;;;;;1.80;1.00;;;20.70;56.70;;;;;;5047820;28;20125;-74
2022/07/08 06:35:01;;;;;;;1.10;0.80;;;20.40;59.60;;;;;;5051797;28;20064;-74
2022/07/08 06:37:27;;;;;;;2.17;0.80;;;20.60;57.30;;;;;;5052250;28;20056;-72
2022/07/08 06:39:54;;;;;;;1.45;1.05;;;20.60;56.70;;;;;;5056008;28;20059;-74
2022/07/08 06:42:21;;;;;;;1.55;1.00;;;19.40;59.90;;;;;;5063421;28;20045;-74
2022/07/08 06:44:49;;;;;;;1.15;0.90;;;20.60;56.80;;;;;;5066191;28;20063;-74
2022/07/08 06:47:15;;;;;;;2.63;0.90;;;20.50;60.10;;;;;;5061563;28;20424;-74
2022/07/08 06:49:42;;;;;;;1.35;0.90;;;20.50;56.80;;;;;;5068923;28;20521;-74
2022/07/08 06:52:09;;;;;;;1.83;0.90;;;20.50;60.20;;;;;;5071164;28;20135;-73
2022/07/08 06:54:35;;;;;;;1.40;0.85;;;20.50;59.90;;;;;;5071242;28;20056;-74
2022/07/08 06:57:02;;;;;;;3.20;1.17;;;20.50;60.10;;;;;;5065091;28;20066;-74
2022/07/08 06:59:29;;;;;;;4.30;1.30;;;20.50;57.20;;;;;;5060676;28;20120;-74
2022/07/08 07:01:59;;;;;;;4.03;1.20;;;20.50;57.40;;;;;;5058620;28;20124;-75
2022/07/08 07:04:26;;;;;;;2.47;1.05;;;20.40;57.40;;;;;;5059434;28;20115;-75
2022/07/08 07:06:53;;;;;;;2.00;1.10;;;21.70;61.70;;;;;;5061378;28;20143;-74
2022/07/08 07:09:19;;;;;;;3.25;1.17;;;20.70;59.10;;;;;;5059607;28;20053;-73
2022/07/08 07:11:46;;;;;;;2.22;1.00;;;20.60;57.30;;;;;;5059377;28;20131;-74
2022/07/08 07:14:13;;;;;;;2.72;1.13;;;21.50;60.70;;;;;;5062716;28;20055;-74
2022/07/08 07:16:39;;;;;;;1.42;0.90;;;20.70;60.20;;;;;;5059233;28;20615;-73
2022/07/08 07:19:08;;;;;;;4.47;1.10;;;20.60;57.00;;;;;;5059449;28;20469;-75
2022/07/08 07:21:35;;;;;;;3.15;1.00;;;20.70;60.20;;;;;;5061333;28;20044;-74
2022/07/08 07:24:01;;;;;;;1.90;1.10;;;20.80;59.80;;;;;;5069597;28;20052;-74
2022/07/08 07:26:28;;;;;;;1.70;1.00;;;21.00;60.50;;;;;;5067670;28;20053;-75
2022/07/08 07:28:55;;;;;;;1.52;0.93;;;20.50;60.00;;;;;;5050825;28;20048;-74
2022/07/08 07:31:22;;;;;;;1.63;1.30;;;19.70;59.50;;;;;;5059552;28;20128;-74
2022/07/08 07:33:49;;;;;;;2.20;1.00;;;20.70;56.80;;;;;;5062134;28;20533;-74
2022/07/08 07:36:17;;;;;;;3.38;1.20;;;20.70;56.80;;;;;;5070406;28;20113;-74
2022/07/08 07:38:43;;;;;;;1.70;0.98;;;20.60;60.00;;;;;;5070473;28;20131;-75
2022/07/08 07:41:10;;;;;;;1.95;0.90;;;21.70;60.20;;;;;;5070574;28;20605;-74
2022/07/08 07:43:37;;;;;;;1.45;1.00;;;20.80;60.70;;;;;;5064490;28;20041;-74
2022/07/08 07:46:04;;;;;;;3.10;1.38;;;20.70;56.90;;;;;;5064501;28;20109;-74
2022/07/08 07:48:30;;;;;;;2.30;1.08;;;19.90;59.20;;;;;;5069895;28;20135;-75
2022/07/08 07:50:57;;;;;;;1.48;0.90;;;20.70;60.60;;;;;;5069957;28;20058;-74
2022/07/08 07:53:26;;;;;;;1.77;0.80;;;20.60;56.90;;;;;;5069660;28;20513;-73
2022/07/08 07:55:53;;;;;;;5.95;1.23;;;20.60;60.40;;;;;;5070374;28;20056;-74
2022/07/08 07:58:19;;;;;;;4.65;1.23;;;20.60;57.10;;;;;;5070072;28;20048;-74
2022/07/08 08:00:46;;;;;;;3.38;1.20;;;20.60;57.20;;;;;;5069498;28;20459;-74
2022/07/08 08:03:13;;;;;;;6.28;1.67;;;20.80;60.30;;;;;;5056058;28;20127;-73
2022/07/08 08:05:39;;;;;;;3.35;1.23;;;20.60;57.20;;;;;;5068308;28;20748;-74
2022/07/08 08:08:06;;;;;;;2.05;1.20;;;20.80;60.20;;;;;;5051178;28;20049;-74
2022/07/08 08:10:34;;;;;;;1.83;1.10;;;20.20;59.80;;;;;;5066687;28;20140;-74
2022/07/08 08:13:01;;;;;;;1.42;1.00;;;20.50;57.10;;;;;;5069193;28;20492;-74
2022/07/08 08:15:29;;;;;;;3.42;1.00;;;20.50;57.20;;;;;;5069999;28;20131;-74
2022/07/08 08:17:56;;;;;;;2.25;1.20;;;20.50;60.30;;;;;;5069895;28;20056;-74
2022/07/08 08:20:24;;;;;;;3.85;1.48;;;20.50;57.20;;;;;;5069865;28;20091;-74
2022/07/08 08:22:50;;;;;;;3.58;1.23;;;20.50;57.30;;;;;;5068459;28;20115;-73
2022/07/08 08:25:17;;;;;;;2.60;1.10;;;20.30;59.50;;;;;;5060557;28;20078;-73
2022/07/08 08:27:45;;;;;;;4.07;1.30;;;20.50;57.30;;;;;;5063191;28;20376;-75
2022/07/08 08:30:13;;;;;;;1.85;1.08;;;20.50;57.50;;;;;;5060303;28;20098;-75
2022/07/08 08:32:40;;;;;;;4.15;1.40;;;20.50;60.30;;;;;;5058607;28;20131;-74
2022/07/08 08:35:07;;;;;;;5.05;1.23;;;19.60;59.70;;;;;;5058033;28;20493;-74
2022/07/08 08:37:34;;;;;;;3.35;1.20;;;20.40;60.40;;;;;;5059795;28;20140;-74
2022/07/08 08:40:02;;;;;;;5.15;1.20;;;20.40;57.40;;;;;;5060422;28;20061;-74
2022/07/08 08:42:29;;;;;;;3.20;1.10;;;20.40;57.40;;;;;;5057923;28;20045;-73
2022/07/08 08:44:58;;;;;;;3.80;1.10;;;20.40;57.40;;;;;;5060235;28;20041;-74
2022/07/08 08:47:25;;;;;;;1.90;1.20;;;20.40;57.40;;;;;;5059976;28;20065;-74
2022/07/08 08:49:52;;;;;;;1.50;1.02;;;20.50;61.30;;;;;;5057099;28;20054;-74
2022/07/08 08:52:18;;;;;;;3.35;1.33;;;20.40;57.40;;;;;;5057063;28;20629;-74
2022/07/08 08:54:45;;;;;;;4.95;1.20;;;20.40;57.50;;;;;;5049176;28;20080;-74
2022/07/08 08:57:12;;;;;;;1.95;1.00;;;20.50;57.50;;;;;;5048971;28;20053;-74
2022/07/08 08:59:38;;;;;;;2.17;1.00;;;20.40;60.50;;;;;;5050038;28;20045;-74
2022/07/08 09:02:06;;;;;;;2.17;1.10;;;20.40;57.50;;;;;;5059697;28;20059;-73
2022/07/08 09:04:33;;;;;;;2.83;1.30;;;20.50;57.60;;;;;;5068611;28;20076;-72
2022/07/08 09:07:00;;;;;;;3.15;1.33;;;20.40;57.50;;;;;;5068959;28;20062;-74
2022/07/08 09:09:27;;;;;;;1.85;1.00;;;19.60;59.20;;;;;;5068668;28;20052;-74
2022/07/08 09:11:54;;;;;;;2.35;1.10;;;20.40;60.70;;;;;;5068834;28;20083;-74
2022/07/08 09:14:21;;;;;;;1.75;1.20;;;20.50;60.30;;;;;;5063056;28;20549;-74
2022/07/08 09:17:09;;;;;;;3.65;1.38;;;20.80;61.60;;;;;;5064308;28;20050;-74
2022/07/08 09:19:36;;;;;;;5.20;1.05;;;20.40;57.70;;;;;;5058977;28;20402;-74
2022/07/08 09:22:03;;;;;;;2.67;1.08;;;21.40;60.70;;;;;;5057084;28;20053;-73
2022/07/08 09:24:30;;;;;;;1.83;1.23;;;20.40;57.90;;;;;;5060897;28;20110;-74
2022/07/08 09:26:56;;;;;;;4.30;1.40;;;20.40;58.00;;;;;;5062970;28;20512;-73
2022/07/08 09:29:23;;;;;;;4.20;1.40;;;20.40;59.40;;;;;;5058085;28;20099;-74
2022/07/08 09:31:50;;;;;;;3.25;1.30;;;20.40;58.10;;;;;;5054468;28;20082;-73
2022/07/08 09:34:20;;;;;;;3.67;1.35;;;20.40;58.10;;;;;;5057614;28;20045;-73
2022/07/08 09:36:47;;;;;;;2.42;1.35;;;20.40;58.10;;;;;;5058240;28;20044;-73
2022/07/08 09:39:24;;;;;;;4.57;1.10;;;20.70;59.40;;;;;;5058296;28;20048;-72
2022/07/08 09:41:51;;;;;;;2.83;1.00;;;20.40;57.90;;;;;;5059014;28;20079;-73
2022/07/08 09:44:19;;;;;;;3.38;1.20;;;20.20;60.70;;;;;;5057355;28;20066;-72
2022/07/08 09:46:46;;;;;;;4.03;1.15;;;20.30;57.80;;;;;;5057117;28;21532;-73
2022/07/08 09:49:28;;;;;;;3.85;1.10;;;20.60;59.40;;;;;;5054790;28;20048;-72
2022/07/08 09:51:55;;;;;;;3.95;1.30;;;20.40;57.80;;;;;;5048591;28;20518;-73
2022/07/08 09:54:22;;;;;;;2.50;1.00;;;20.30;60.70;;;;;;5055736;28;20052;-74
2022/07/08 09:56:58;;;;;;;2.40;1.25;;;20.40;58.00;;;;;;5055214;28;20044;-74
2022/07/08 09:59:25;;;;;;;1.38;1.00;;;20.50;59.20;;;;;;5058579;28;20075;-74
2022/07/08 10:01:52;;;;;;;2.78;1.35;;;20.40;57.70;;;;;;5054955;28;20137;-73
2022/07/08 10:04:19;;;;;;;3.47;1.20;;;20.40;57.60;;;;;;5055012;28;20394;-73
2022/07/08 10:06:48;;;;;;;3.33;1.20;;;20.50;57.70;;;;;;5048636;28;20402;-74
2022/07/08 10:09:15;;;;;;;2.03;1.10;;;19.60;58.30;;;;;;5047549;28;20504;-75
2022/07/08 10:11:41;;;;;;;3.28;1.08;;;21.40;61.00;;;;;;5047980;28;20091;-74
2022/07/08 10:14:08;;;;;;;4.13;1.45;;;20.90;61.00;;;;;;5048642;28;20057;-75
2022/07/08 10:16:35;;;;;;;1.58;0.95;;;20.50;57.60;;;;;;5049534;28;20131;-74
2022/07/08 10:19:02;;;;;;;2.13;1.08;;;20.50;57.60;;;;;;5067695;28;20057;-74
2022/07/08 10:21:28;;;;;;;2.80;1.30;;;20.50;57.50;;;;;;5058507;28;20077;-75
2022/07/08 10:23:56;;;;;;;1.60;1.13;;;20.60;57.60;;;;;;5047231;28;20119;-75
2022/07/08 10:26:25;;;;;;;2.50;1.27;;;20.60;57.50;;;;;;5047864;28;20057;-75
2022/07/08 10:29:00;;;;;;;2.78;1.23;;;20.70;60.80;;;;;;5049398;28;20053;-74
2022/07/08 10:31:29;;;;;;;1.63;1.08;;;20.70;60.50;;;;;;5061980;28;20494;-74
2022/07/08 10:33:59;;;;;;;1.90;1.02;;;20.60;57.40;;;;;;5063645;28;20053;-74
2022/07/08 10:36:26;;;;;;;2.42;1.10;;;20.60;57.40;;;;;;5047324;28;20049;-74
2022/07/08 10:38:53;;;;;;;3.90;1.20;;;21.00;57.60;;;;;;5047946;28;20061;-74
2022/07/08 10:41:22;;;;;;;1.63;1.00;;;20.70;60.30;;;;;;5047115;28;20044;-74
2022/07/08 10:43:52;;;;;;;4.05;1.60;;;20.70;57.30;;;;;;5050147;28;20087;-74
2022/07/08 10:46:20;;;;;;;3.78;1.10;;;20.80;57.30;;;;;;5068065;28;20505;-74
2022/07/08 10:48:51;;;;;;;2.75;1.20;;;21.00;60.30;;;;;;5068360;28;20057;-74
2022/07/08 10:51:58;;;;;;;10.40;1.55;;;20.80;57.20;;;;;;5067532;28;20330;-74
2022/07/08 10:54:25;;;;;;;5.10;1.30;;;20.80;57.20;;;;;;5060014;28;20057;-72
2022/07/08 10:56:54;;;;;;;3.45;1.30;;;20.80;57.30;;;;;;5048096;28;20135;-74
2022/07/08 10:59:21;;;;;;;3.90;1.40;;;20.80;58.20;;;;;;5046702;28;20057;-73
2022/07/08 11:01:51;;;;;;;2.80;1.30;;;20.90;57.60;;;;;;5057817;28;20279;-73
2022/07/08 11:04:31;;;;;;;3.85;1.30;;;20.90;60.30;;;;;;5065479;28;20053;-73
2022/07/08 11:07:26;;;;;;;3.42;1.30;;;20.90;57.80;;;;;;5057004;28;20044;-73
2022/07/08 11:09:54;;;;;;;2.40;1.20;;;20.90;57.70;;;;;;5054937;28;20505;-73
2022/07/08 11:12:24;;;;;;;3.20;1.30;;;20.90;57.80;;;;;;5056895;28;20506;-74
2022/07/08 11:14:52;;;;;;;2.60;1.23;;;20.90;57.60;;;;;;5055570;28;20407;-74
2022/07/08 11:17:19;;;;;;;2.92;1.30;;;21.00;57.50;;;;;;5057914;28;20080;-74
2022/07/08 11:19:46;;;;;;;4.55;1.45;;;21.00;57.40;;;;;;5057118;28;20049;-74
2022/07/08 11:22:13;;;;;;;2.70;1.30;;;21.00;57.30;;;;;;5060184;28;20427;-74
2022/07/08 11:24:40;;;;;;;4.30;1.40;;;21.10;57.20;;;;;;5060617;28;20460;-75
2022/07/08 11:27:07;;;;;;;2.13;1.13;;;21.10;57.10;;;;;;5059595;28;20135;-74
2022/07/08 11:29:35;;;;;;;3.28;1.10;;;20.20;59.80;;;;;;5068579;28;20067;-74
2022/07/08 11:32:03;;;;;;;2.20;1.10;;;21.10;57.00;;;;;;5071242;28;20123;-74
2022/07/08 11:34:30;;;;;;;2.65;1.17;;;21.10;56.90;;;;;;5070539;28;20481;-74
2022/07/08 11:36:57;;;;;;;2.38;1.30;;;21.00;59.20;;;;;;5070645;28;20083;-74
2022/07/08 11:39:24;;;;;;;2.17;1.00;;;21.10;56.90;;;;;;5070102;28;20136;-73
2022/07/08 11:41:51;;;;;;;24.30;7.22;;;22.00;60.20;;;;;;5069754;28;20057;-73
2022/07/08 11:44:18;;;;;;;13.48;4.25;;;21.10;57.10;;;;;;5061813;28;20048;-73
2022/07/08 11:46:47;;;;;;;7.30;2.65;;;21.20;57.20;;;;;;5049957;28;20049;-73
2022/07/08 11:49:14;;;;;;;9.15;3.75;;;21.20;58.30;;;;;;5049857;28;20577;-74
2022/07/08 11:51:45;;;;;;;9.30;2.88;;;21.20;57.20;;;;;;5050304;28;20060;-73
2022/07/08 11:54:11;;;;;;;21.23;8.35;;;21.20;60.50;;;;;;5049437;28;20088;-74
2022/07/08 11:56:38;;;;;;;9.30;3.97;;;21.30;57.40;;;;;;5049447;28;20136;-74
2022/07/08 11:59:05;;;;;;;9.63;3.50;;;21.30;57.40;;;;;;5049416;28;20132;-74
2022/07/08 12:01:33;;;;;;;8.73;3.67;;;21.20;59.80;;;;;;5053210;28;20490;-74
2022/07/08 12:04:03;;;;;;;11.25;3.85;;;21.30;57.20;;;;;;5051310;28;20110;-74
2022/07/08 12:06:30;;;;;;;8.77;3.13;;;21.30;57.10;;;;;;5048807;28;20548;-74
2022/07/08 12:08:57;;;;;;;11.55;3.63;;;21.30;57.10;;;;;;5048266;28;20148;-74
2022/07/08 12:11:25;;;;;;;7.95;3.92;;;21.40;57.20;;;;;;5048880;28;20092;-74
2022/07/08 12:13:52;;;;;;;10.07;3.30;;;21.30;57.10;;;;;;5057521;28;20127;-74
2022/07/08 12:16:29;;;;;;;9.45;3.40;;;21.30;57.40;;;;;;5069928;28;20596;-74
2022/07/08 12:18:56;;;;;;;6.57;2.90;;;21.40;60.10;;;;;;5070046;28;20052;-74
2022/07/08 12:21:24;;;;;;;9.05;2.78;;;21.30;57.50;;;;;;5069538;28;20053;-74
2022/07/08 12:23:58;;;;;;;7.57;3.00;;;21.40;57.40;;;;;;5068337;28;20148;-74
2022/07/08 12:26:25;;;;;;;9.77;2.63;;;21.50;57.70;;;;;;5049494;28;20148;-74
2022/07/08 12:28:51;;;;;;;6.35;2.78;;;21.40;57.40;;;;;;5049477;28;20045;-74
2022/07/08 12:31:34;;;;;;;7.13;2.75;;;21.40;57.40;;;;;;5049078;28;20132;-74
2022/07/08 12:34:02;;;;;;;6.22;2.63;;;21.50;57.30;;;;;;5049501;28;20100;-74
2022/07/08 12:36:31;;;;;;;5.85;2.40;;;21.40;57.20;;;;;;5049420;28;20060;-74
2022/07/08 12:38:58;;;;;;;6.10;2.42;;;21.40;57.20;;;;;;5049484;28;20060;-74
2022/07/08 12:41:24;;;;;;;5.70;2.63;;;21.50;59.60;;;;;;5050174;28;20124;-74
2022/07/08 12:43:51;;;;;;;7.05;2.40;;;21.50;57.20;;;;;;5054075;28;20055;-74
2022/07/08 12:46:18;;;;;;;7.18;2.72;;;21.40;57.00;;;;;;5060813;28;20052;-74
2022/07/08 12:48:45;;;;;;;6.20;2.15;;;21.40;59.20;;;;;;5068973;28;20135;-74
2022/07/08 12:51:11;;;;;;;4.65;2.03;;;21.50;57.10;;;;;;5069034;28;20128;-75